Time;durP1;ratioP1;P1;durP2;ratioP2;P2;SDS_P1;SDS_P2;PMS_P1;PMS_P2;Temp;Humidity;BMP_temperature;BMP_pressure;BME280_temperature;BME280_humidity;BME280_pressure;Samples;Min_cycle;Max_cycle;Signal;HPM_P1;HPM_P2
2023/11/23 00:00:42;;;;;;;1.10;1.10;;;1.30;99.90;;;;;;5062731;28;20029;-74
2023/11/23 00:03:08;;;;;;;0.55;0.55;;;1.30;99.90;;;;;;5049213;28;20045;-74
2023/11/23 00:05:49;;;;;;;0.90;0.90;;;1.40;99.90;;;;;;5061937;28;20091;-74
2023/11/23 00:08:17;;;;;;;0.22;0.15;;;1.40;99.90;;;;;;5065070;28;20025;-74
2023/11/23 00:10:43;;;;;;;1.85;1.75;;;1.40;99.90;;;;;;5068832;28;20029;-74
2023/11/23 00:19:00;;;;;;;1.25;1.20;;;1.50;99.90;;;;;;4908781;29;20055;-79
2023/11/23 00:21:26;;;;;;;1.70;0.90;;;1.60;99.90;;;;;;4947681;29;20039;-79
2023/11/23 00:23:53;;;;;;;1.95;1.52;;;1.70;99.90;;;;;;4947476;29;20040;-77
2023/11/23 00:26:19;;;;;;;0.20;0.20;;;1.60;94.80;;;;;;4939212;29;20050;-76
2023/11/23 00:28:55;;;;;;;2.92;1.90;;;1.70;85.00;;;;;;4942215;29;20054;-76
2023/11/23 00:31:21;;;;;;;1.60;1.20;;;1.70;67.50;;;;;;4944911;29;20039;-76
2023/11/23 00:33:48;;;;;;;1.30;1.23;;;1.80;53.50;;;;;;4945190;28;20047;-76
2023/11/23 00:36:14;;;;;;;3.50;0.90;;;1.70;43.70;;;;;;4927206;29;20472;-76
2023/11/23 00:38:41;;;;;;;1.02;1.02;;;1.70;49.40;;;;;;4927572;29;20048;-76
2023/11/23 00:41:07;;;;;;;1.48;1.38;;;1.70;59.50;;;;;;4926836;29;20479;-77
2023/11/23 00:43:34;;;;;;;1.05;0.95;;;1.70;56.30;;;;;;4953949;29;20038;-76
2023/11/23 00:46:04;;;;;;;1.23;1.13;;;1.60;52.40;;;;;;4940782;29;20032;-77
2023/11/23 00:48:30;;;;;;;1.45;1.38;;;1.60;58.50;;;;;;4946133;29;20042;-77
2023/11/23 00:50:56;;;;;;;0.77;0.77;;;1.50;68.40;;;;;;4950621;29;20057;-77
2023/11/23 00:53:22;;;;;;;0.68;0.68;;;1.40;76.70;;;;;;4946232;29;20055;-77
2023/11/23 00:55:50;;;;;;;0.47;0.47;;;1.30;87.70;;;;;;4940890;29;20031;-77
2023/11/23 00:58:16;;;;;;;0.80;0.80;;;1.30;92.10;;;;;;4942059;29;20044;-77
2023/11/23 01:00:43;;;;;;;0.60;0.60;;;1.30;94.10;;;;;;4946537;29;20027;-77
2023/11/23 01:03:09;;;;;;;1.10;1.05;;;1.30;99.90;;;;;;4947379;29;20050;-77
2023/11/23 01:05:36;;;;;;;0.60;0.57;;;1.20;99.90;;;;;;4945571;29;20043;-77
2023/11/23 01:08:03;;;;;;;1.55;1.40;;;1.10;99.90;;;;;;4942221;29;20044;-77
2023/11/23 01:10:29;;;;;;;0.40;0.40;;;1.10;99.90;;;;;;4941145;29;20037;-77
2023/11/23 01:12:55;;;;;;;2.63;1.73;;;1.00;99.90;;;;;;4948598;29;20035;-77
2023/11/23 01:15:22;;;;;;;0.28;0.28;;;1.00;99.90;;;;;;4947157;29;20036;-77
2023/11/23 01:17:48;;;;;;;1.23;1.15;;;1.00;99.90;;;;;;4944163;29;20059;-77
2023/11/23 01:20:14;;;;;;;1.45;1.35;;;1.00;99.90;;;;;;4939041;29;20032;-77
2023/11/23 01:22:41;;;;;;;1.92;0.88;;;0.90;99.90;;;;;;4946891;29;20043;-77
2023/11/23 01:25:08;;;;;;;0.65;0.65;;;0.90;99.90;;;;;;4956487;29;20105;-77
2023/11/23 01:27:36;;;;;;;1.38;1.30;;;0.90;99.90;;;;;;4941975;29;20027;-77
2023/11/23 01:30:02;;;;;;;1.08;1.05;;;0.80;99.90;;;;;;4945724;29;20484;-77
2023/11/23 01:32:28;;;;;;;3.97;0.88;;;0.80;99.90;;;;;;4922122;29;20044;-77
2023/11/23 01:34:54;;;;;;;1.60;1.50;;;0.80;99.90;;;;;;4928115;29;20054;-77
2023/11/23 01:37:20;;;;;;;1.30;0.95;;;0.70;99.90;;;;;;4939236;29;20036;-77
2023/11/23 01:39:47;;;;;;;11.38;3.95;;;0.70;99.90;;;;;;4944323;29;20036;-77
2023/11/23 01:42:14;;;;;;;0.50;0.50;;;0.60;99.90;;;;;;4944116;29;20377;-77
2023/11/23 01:44:40;;;;;;;0.32;0.32;;;0.60;99.90;;;;;;4947671;29;20043;-77
2023/11/23 01:47:10;;;;;;;0.30;0.30;;;0.60;99.90;;;;;;4947290;28;20035;-77
2023/11/23 01:49:39;;;;;;;0.55;0.55;;;0.60;99.90;;;;;;4946363;29;20052;-77
2023/11/23 01:52:05;;;;;;;1.13;1.13;;;0.50;99.90;;;;;;4945063;29;20039;-77
2023/11/23 01:54:34;;;;;;;1.02;1.02;;;0.60;99.90;;;;;;4949545;29;20460;-77
2023/11/23 01:57:01;;;;;;;1.58;1.48;;;0.50;99.90;;;;;;4943767;29;20027;-77
2023/11/23 01:59:30;;;;;;;0.57;0.55;;;0.50;99.90;;;;;;4946100;29;20035;-77
2023/11/23 02:01:56;;;;;;;0.40;0.40;;;0.50;99.90;;;;;;4925893;29;20058;-77
2023/11/23 02:04:23;;;;;;;1.02;0.95;;;0.50;99.90;;;;;;4929053;28;20058;-77
2023/11/23 02:06:51;;;;;;;1.05;1.05;;;0.50;99.90;;;;;;4946073;29;20047;-77
2023/11/23 02:09:18;;;;;;;0.60;0.60;;;0.50;99.90;;;;;;4931589;29;20046;-77
2023/11/23 02:11:44;;;;;;;0.32;0.32;;;0.40;99.90;;;;;;4928902;29;20050;-77
2023/11/23 02:14:11;;;;;;;0.90;0.85;;;0.30;99.90;;;;;;4943798;29;20040;-77
2023/11/23 02:16:37;;;;;;;1.05;0.93;;;0.30;99.90;;;;;;4947889;29;20456;-78
2023/11/23 02:19:04;;;;;;;1.35;1.25;;;0.20;99.90;;;;;;4927569;29;20064;-78
2023/11/23 02:21:30;;;;;;;8.52;2.92;;;0.20;99.90;;;;;;4908072;29;20044;-77
2023/11/23 02:23:57;;;;;;;0.77;0.77;;;0.10;99.90;;;;;;4911311;29;20044;-78
2023/11/23 02:26:23;;;;;;;3.50;2.40;;;0.10;99.90;;;;;;4909353;29;20044;-78
2023/11/23 02:28:49;;;;;;;1.23;1.13;;;0.10;99.90;;;;;;4912694;29;20040;-77
2023/11/23 02:31:15;;;;;;;1.10;1.00;;;0.10;99.90;;;;;;4917990;29;20507;-78
2023/11/23 02:33:41;;;;;;;0.52;0.52;;;0.00;99.90;;;;;;4907985;29;20036;-78
2023/11/23 02:36:08;;;;;;;0.50;0.50;;;0.00;1.00;;;;;;4909781;29;20032;-78
2023/11/23 02:38:34;;;;;;;1.40;1.33;;;0.10;1.00;;;;;;4909789;29;20039;-77
2023/11/23 02:41:00;;;;;;;0.30;0.30;;;0.00;1.00;;;;;;4909341;29;20028;-77
2023/11/23 02:43:27;;;;;;;2.95;1.70;;;0.00;1.00;;;;;;4921230;29;20052;-77
2023/11/23 02:45:54;;;;;;;0.17;0.17;;;0.10;1.00;;;;;;4909053;29;20043;-77
2023/11/23 02:48:21;;;;;;;0.63;0.63;;;0.10;1.00;;;;;;4916342;29;20044;-77
2023/11/23 02:50:47;;;;;;;1.73;0.88;;;0.10;1.00;;;;;;4909911;29;20040;-78
2023/11/23 02:53:28;;;;;;;0.63;0.63;;;0.10;1.00;;;;;;4910633;29;20040;-78
2023/11/23 02:55:57;;;;;;;0.63;0.60;;;0.00;1.00;;;;;;4920137;29;20043;-76
2023/11/23 02:58:23;;;;;;;2.75;1.08;;;0.00;1.00;;;;;;4926431;29;20036;-78
2023/11/23 03:00:51;;;;;;;0.93;0.93;;;0.00;1.00;;;;;;4914917;29;20036;-77
2023/11/23 03:03:17;;;;;;;1.70;1.60;;;0.00;1.00;;;;;;4908295;29;20060;-78
2023/11/23 03:05:44;;;;;;;0.55;0.55;;;-0.10;1.00;;;;;;4920507;29;20048;-78
2023/11/23 03:08:10;;;;;;;0.80;0.55;;;-0.10;1.00;;;;;;4908114;29;20032;-78
2023/11/23 03:10:36;;;;;;;0.68;0.68;;;-0.10;1.00;;;;;;4918876;29;20048;-78
2023/11/23 03:13:02;;;;;;;1.30;1.27;;;-0.10;1.00;;;;;;4909583;29;20381;-78
2023/11/23 03:15:29;;;;;;;0.85;0.85;;;-0.10;1.00;;;;;;4909337;29;20045;-78
2023/11/23 03:17:56;;;;;;;1.77;1.35;;;-0.10;1.00;;;;;;4921533;29;20063;-78
2023/11/23 03:20:22;;;;;;;0.88;0.88;;;-0.20;1.00;;;;;;4945121;29;20027;-78
2023/11/23 03:22:48;;;;;;;1.02;1.02;;;-0.10;1.00;;;;;;4946734;29;20039;-78
2023/11/23 03:25:15;;;;;;;2.13;1.75;;;-0.20;1.00;;;;;;4945049;29;20035;-78
2023/11/23 03:27:41;;;;;;;1.08;0.93;;;-0.20;1.00;;;;;;4946769;29;20058;-78
2023/11/23 03:30:08;;;;;;;1.15;1.05;;;-0.20;1.00;;;;;;4941733;29;20491;-78
2023/11/23 03:32:34;;;;;;;0.93;0.60;;;-0.20;1.00;;;;;;4927466;29;20046;-78
2023/11/23 03:35:00;;;;;;;1.05;0.95;;;-0.20;1.00;;;;;;4945884;29;20034;-78
2023/11/23 03:37:27;;;;;;;0.77;0.77;;;-0.20;1.00;;;;;;4927926;29;20059;-78
2023/11/23 03:39:57;;;;;;;0.90;0.90;;;-0.20;1.00;;;;;;4946606;29;20028;-78
2023/11/23 03:42:23;;;;;;;0.97;0.40;;;-0.20;1.00;;;;;;4948620;29;20040;-78
2023/11/23 03:44:50;;;;;;;2.05;1.95;;;-0.30;1.00;;;;;;4947566;29;20035;-77
2023/11/23 03:47:16;;;;;;;0.75;0.47;;;-0.20;1.00;;;;;;4926358;29;20046;-78
2023/11/23 03:49:42;;;;;;;1.35;1.30;;;-0.20;1.00;;;;;;4943910;29;20054;-78
2023/11/23 03:52:08;;;;;;;2.08;1.27;;;-0.20;1.00;;;;;;4948284;29;20039;-77
2023/11/23 03:54:34;;;;;;;0.50;0.50;;;-0.30;1.00;;;;;;4948718;29;20035;-78
2023/11/23 03:57:01;;;;;;;1.40;1.20;;;-0.30;1.00;;;;;;4944799;29;20042;-78
2023/11/23 03:59:27;;;;;;;1.23;1.17;;;-0.30;1.00;;;;;;4941068;29;20043;-78
2023/11/23 04:01:53;;;;;;;5.55;2.08;;;-0.30;1.00;;;;;;4946395;29;20046;-78
2023/11/23 04:04:19;;;;;;;0.90;0.85;;;-0.30;1.00;;;;;;4945390;29;20031;-78
2023/11/23 04:06:45;;;;;;;1.77;1.65;;;-0.20;1.00;;;;;;4946668;29;20061;-78
2023/11/23 04:09:12;;;;;;;1.70;1.60;;;-0.30;1.00;;;;;;4944311;28;20031;-78
2023/11/23 04:11:39;;;;;;;0.10;0.10;;;-0.30;1.00;;;;;;4941148;29;20046;-78
2023/11/23 04:14:05;;;;;;;0.88;0.47;;;-0.30;1.00;;;;;;4944364;29;20046;-78
2023/11/23 04:16:32;;;;;;;1.33;1.17;;;-0.30;1.00;;;;;;4953355;29;20019;-78
2023/11/23 04:18:58;;;;;;;0.85;0.85;;;-0.30;1.00;;;;;;4943905;29;20485;-78
2023/11/23 04:21:24;;;;;;;0.60;0.60;;;-0.30;1.00;;;;;;4947081;29;20040;-78
2023/11/23 04:23:50;;;;;;;0.47;0.47;;;-0.30;1.00;;;;;;4941628;29;20043;-78
2023/11/23 04:26:17;;;;;;;0.57;0.50;;;-0.30;1.00;;;;;;4945470;29;20050;-78
2023/11/23 04:28:43;;;;;;;0.00;0.00;;;-0.20;1.00;;;;;;4944621;29;20488;-78
2023/11/23 04:31:09;;;;;;;1.17;0.95;;;-0.20;1.00;;;;;;4943855;29;20046;-78
2023/11/23 04:33:35;;;;;;;0.63;0.63;;;-0.20;1.00;;;;;;4945127;29;20047;-78
2023/11/23 04:36:04;;;;;;;4.07;2.47;;;-0.20;1.00;;;;;;4942959;29;20034;-78
2023/11/23 04:38:30;;;;;;;2.33;2.03;;;-0.20;1.00;;;;;;4942329;29;20042;-78
2023/11/23 04:40:56;;;;;;;1.13;1.13;;;-0.20;1.00;;;;;;4943323;29;20039;-78
2023/11/23 04:43:22;;;;;;;1.25;1.15;;;-0.20;1.00;;;;;;4943623;29;20368;-78
2023/11/23 04:45:49;;;;;;;1.00;1.00;;;-0.20;1.00;;;;;;4945850;29;20035;-78
2023/11/23 04:48:15;;;;;;;1.75;1.45;;;-0.20;1.00;;;;;;4943341;29;20039;-78
2023/11/23 04:50:41;;;;;;;2.05;1.50;;;-0.20;1.00;;;;;;4932167;29;20031;-78
2023/11/23 04:53:07;;;;;;;1.35;1.25;;;-0.10;1.00;;;;;;4936980;29;20048;-78
2023/11/23 04:55:35;;;;;;;1.10;0.80;;;0.00;1.00;;;;;;4943721;29;20039;-78
2023/11/23 04:58:01;;;;;;;2.38;1.88;;;0.00;1.00;;;;;;4945116;29;20043;-77
2023/11/23 05:00:27;;;;;;;0.10;0.10;;;0.10;1.00;;;;;;4945066;29;20032;-78
2023/11/23 05:02:57;;;;;;;0.15;0.15;;;0.20;1.00;;;;;;4941736;29;20035;-78
2023/11/23 05:05:23;;;;;;;1.92;1.45;;;0.30;1.00;;;;;;4940969;29;20046;-78
2023/11/23 05:07:49;;;;;;;1.10;1.10;;;0.30;1.00;;;;;;4941248;28;20027;-78
2023/11/23 05:10:16;;;;;;;2.45;1.35;;;0.40;1.00;;;;;;4950415;29;20027;-77
2023/11/23 05:12:42;;;;;;;0.90;0.55;;;0.40;1.00;;;;;;4943554;29;20035;-78
2023/11/23 05:15:08;;;;;;;5.82;2.75;;;0.40;1.00;;;;;;4944149;29;20046;-78
2023/11/23 05:17:35;;;;;;;0.52;0.52;;;0.50;99.90;;;;;;4939498;29;20059;-77
2023/11/23 05:20:01;;;;;;;1.67;1.58;;;0.50;99.90;;;;;;4945837;28;20031;-77
2023/11/23 05:22:27;;;;;;;1.58;0.85;;;0.50;99.90;;;;;;4947222;29;20044;-78
2023/11/23 05:24:53;;;;;;;0.77;0.75;;;0.50;99.90;;;;;;4949001;29;20052;-78
2023/11/23 05:27:20;;;;;;;0.50;0.50;;;0.60;99.90;;;;;;4943886;28;20043;-78
2023/11/23 05:29:47;;;;;;;2.65;0.90;;;0.60;99.90;;;;;;4947605;29;20043;-77
2023/11/23 05:32:13;;;;;;;2.60;0.75;;;0.60;99.90;;;;;;4948656;29;20034;-78
2023/11/23 05:34:39;;;;;;;1.33;1.10;;;0.60;99.90;;;;;;4950782;28;20459;-78
2023/11/23 05:37:05;;;;;;;1.85;1.75;;;0.60;99.90;;;;;;4945807;28;20052;-78
2023/11/23 05:39:32;;;;;;;1.58;1.48;;;0.70;99.90;;;;;;4947367;29;20046;-77
2023/11/23 05:41:58;;;;;;;1.10;1.00;;;0.60;99.90;;;;;;4951492;28;20051;-77
2023/11/23 05:44:25;;;;;;;2.28;1.27;;;0.70;99.90;;;;;;4959420;28;20067;-78
2023/11/23 05:46:51;;;;;;;0.82;0.82;;;0.70;99.90;;;;;;4946051;28;20047;-77
2023/11/23 05:49:21;;;;;;;1.92;1.83;;;0.70;99.90;;;;;;4929700;29;20046;-77
2023/11/23 05:51:51;;;;;;;0.93;0.93;;;0.70;99.90;;;;;;4952656;29;20038;-78
2023/11/23 05:54:17;;;;;;;2.72;2.08;;;0.70;99.90;;;;;;4948751;29;20054;-77
2023/11/23 05:56:45;;;;;;;3.35;0.73;;;0.70;99.90;;;;;;4945261;29;20032;-77
2023/11/23 05:59:11;;;;;;;1.27;0.95;;;0.80;99.90;;;;;;4945705;28;20027;-77
2023/11/23 06:01:37;;;;;;;1.08;1.08;;;0.80;99.90;;;;;;4946622;29;20034;-77
2023/11/23 06:04:04;;;;;;;2.17;1.40;;;0.90;99.90;;;;;;4951090;29;20039;-77
2023/11/23 06:06:30;;;;;;;0.85;0.85;;;0.80;99.90;;;;;;4947793;29;20035;-77
2023/11/23 06:08:56;;;;;;;2.05;1.85;;;0.90;99.90;;;;;;4947669;29;20043;-77
2023/11/23 06:11:23;;;;;;;0.35;0.35;;;0.90;99.90;;;;;;4942398;29;20042;-78
2023/11/23 06:13:49;;;;;;;0.98;0.90;;;1.00;99.90;;;;;;4947346;28;20038;-77
2023/11/23 06:16:16;;;;;;;1.63;0.82;;;1.00;99.90;;;;;;4930129;29;20048;-77
2023/11/23 06:18:42;;;;;;;0.60;0.60;;;1.00;99.90;;;;;;4927546;29;20124;-78
2023/11/23 06:21:08;;;;;;;1.73;1.55;;;1.00;99.90;;;;;;4939837;29;20066;-77
2023/11/23 06:23:34;;;;;;;0.85;0.85;;;1.00;99.90;;;;;;4949160;29;20039;-77
2023/11/23 06:26:00;;;;;;;0.63;0.63;;;1.00;99.90;;;;;;4949921;29;20042;-78
2023/11/23 06:28:27;;;;;;;0.60;0.60;;;1.00;99.90;;;;;;4946885;29;20035;-77
2023/11/23 06:30:53;;;;;;;0.60;0.60;;;1.00;99.90;;;;;;4947464;29;20047;-78
2023/11/23 06:33:19;;;;;;;2.65;1.08;;;1.10;99.90;;;;;;4941995;29;20032;-77
2023/11/23 06:35:45;;;;;;;1.92;1.80;;;1.10;99.90;;;;;;4948656;29;20039;-77
2023/11/23 06:38:11;;;;;;;0.52;0.52;;;1.10;99.90;;;;;;4946271;28;20027;-77
2023/11/23 06:40:38;;;;;;;0.85;0.85;;;1.10;99.90;;;;;;4943938;29;20058;-77
2023/11/23 06:43:07;;;;;;;0.20;0.20;;;1.20;99.90;;;;;;4949299;29;20046;-77
2023/11/23 06:45:33;;;;;;;0.70;0.70;;;1.20;99.90;;;;;;4952350;28;20047;-77
2023/11/23 06:47:59;;;;;;;3.80;1.70;;;1.20;99.90;;;;;;4953136;29;20039;-77
2023/11/23 06:50:25;;;;;;;0.38;0.38;;;1.30;99.90;;;;;;4949161;29;20035;-79
2023/11/23 06:52:52;;;;;;;4.68;1.63;;;1.30;99.90;;;;;;4950082;29;20054;-78
2023/11/23 06:55:18;;;;;;;0.80;0.80;;;1.30;99.90;;;;;;4934832;29;20054;-78
2023/11/23 06:57:47;;;;;;;2.30;2.10;;;1.30;99.90;;;;;;4951358;29;20051;-78
2023/11/23 07:00:23;;;;;;;0.90;0.90;;;1.40;99.90;;;;;;4945633;29;20035;-77
2023/11/23 07:02:51;;;;;;;0.50;0.50;;;1.40;99.90;;;;;;4946699;29;20507;-78
2023/11/23 07:05:19;;;;;;;1.13;0.70;;;1.40;99.90;;;;;;4946523;29;20510;-77
2023/11/23 07:07:47;;;;;;;0.77;0.73;;;1.40;99.90;;;;;;4943860;29;20269;-78
2023/11/23 07:10:14;;;;;;;3.30;0.90;;;1.40;99.90;;;;;;4949761;29;20032;-78
2023/11/23 07:12:41;;;;;;;0.52;0.50;;;1.50;99.90;;;;;;4946024;29;20039;-77
2023/11/23 07:15:12;;;;;;;1.05;1.05;;;1.50;99.90;;;;;;4946139;28;20505;-78
2023/11/23 07:17:39;;;;;;;1.10;1.10;;;1.50;99.90;;;;;;4950890;28;20059;-77
2023/11/23 07:20:06;;;;;;;2.40;1.13;;;1.60;99.90;;;;;;4930675;29;20047;-77
2023/11/23 07:22:35;;;;;;;0.68;0.68;;;1.60;99.90;;;;;;4948602;29;20055;-78
2023/11/23 07:25:03;;;;;;;0.45;0.45;;;1.60;99.90;;;;;;4947495;29;20047;-78
2023/11/23 07:27:29;;;;;;;0.55;0.55;;;1.70;99.90;;;;;;4945225;29;20046;-78
2023/11/23 07:29:56;;;;;;;3.97;2.28;;;1.70;99.90;;;;;;4946045;29;20047;-78
2023/11/23 07:32:22;;;;;;;1.50;0.73;;;1.70;99.90;;;;;;4944963;29;20043;-77
2023/11/23 07:34:48;;;;;;;0.57;0.57;;;1.80;99.90;;;;;;4947242;29;20354;-78
2023/11/23 07:37:14;;;;;;;4.88;1.27;;;1.80;99.90;;;;;;4928655;29;20039;-77
2023/11/23 07:39:41;;;;;;;0.63;0.63;;;1.90;99.90;;;;;;4945249;29;20047;-79
2023/11/23 07:42:07;;;;;;;0.90;0.80;;;1.90;99.90;;;;;;4946582;29;20058;-79
2023/11/23 07:44:33;;;;;;;1.10;1.05;;;1.90;99.90;;;;;;4945836;28;20038;-78
2023/11/23 07:47:00;;;;;;;1.08;1.02;;;2.00;99.90;;;;;;4947350;29;20054;-78
2023/11/23 07:49:26;;;;;;;1.25;1.25;;;2.00;99.90;;;;;;4931103;29;20051;-78
2023/11/23 07:51:55;;;;;;;1.20;0.70;;;2.10;99.90;;;;;;4950432;29;20040;-77
2023/11/23 07:54:21;;;;;;;0.10;0.10;;;2.10;99.90;;;;;;4947472;29;20046;-77
2023/11/23 07:56:48;;;;;;;0.28;0.28;;;2.10;99.90;;;;;;4942190;29;20047;-78
2023/11/23 07:59:14;;;;;;;0.60;0.60;;;2.20;99.90;;;;;;4945532;29;20040;-78
2023/11/23 08:01:40;;;;;;;0.55;0.55;;;2.20;99.90;;;;;;4949580;29;20030;-80
2023/11/23 08:04:07;;;;;;;1.58;1.23;;;2.20;99.90;;;;;;4949820;29;20042;-78
2023/11/23 08:06:34;;;;;;;1.55;1.13;;;2.30;98.70;;;;;;4932798;29;20052;-78
2023/11/23 08:09:00;;;;;;;5.32;3.60;;;2.30;96.20;;;;;;4924466;29;20483;-84
2023/11/23 08:11:27;;;;;;;1.30;1.27;;;2.40;95.20;;;;;;4943484;29;20044;-80
2023/11/23 08:13:55;;;;;;;0.65;0.65;;;2.40;88.10;;;;;;4947246;28;20388;-81
2023/11/23 08:16:21;;;;;;;2.28;1.85;;;2.50;79.10;;;;;;4939563;28;20032;-81
2023/11/23 08:18:47;;;;;;;2.17;1.98;;;2.60;70.60;;;;;;4947142;28;20057;-79
2023/11/23 08:21:14;;;;;;;1.55;1.10;;;2.70;50.60;;;;;;4955102;28;20039;-79
2023/11/23 08:23:41;;;;;;;1.38;1.27;;;2.70;42.30;;;;;;4952316;28;20051;-79
2023/11/23 08:26:08;;;;;;;1.75;0.73;;;2.80;42.60;;;;;;4951518;28;20046;-79
2023/11/23 08:28:34;;;;;;;1.05;1.05;;;2.80;36.10;;;;;;4958471;28;20055;-80
2023/11/23 08:31:00;;;;;;;0.47;0.47;;;2.80;31.70;;;;;;4955925;28;20039;-80
2023/11/23 08:33:27;;;;;;;1.48;1.30;;;2.90;26.50;;;;;;4928275;28;20035;-80
2023/11/23 08:35:53;;;;;;;1.98;1.52;;;3.00;22.80;;;;;;4923626;28;20043;-82
2023/11/23 08:38:19;;;;;;;0.68;0.68;;;3.00;18.20;;;;;;4934684;28;20050;-79
2023/11/23 08:40:46;;;;;;;1.42;1.33;;;3.10;4.90;;;;;;4955702;28;20043;-80
2023/11/23 08:43:12;;;;;;;0.85;0.85;;;3.10;7.30;;;;;;4956502;28;20042;-80
2023/11/23 08:45:38;;;;;;;5.18;2.35;;;3.20;6.90;;;;;;4953600;28;20042;-80
2023/11/23 08:48:05;;;;;;;0.98;0.95;;;3.20;1.20;;;;;;4950375;28;20047;-81
2023/11/23 08:50:31;;;;;;;6.22;1.48;;;3.30;1.00;;;;;;4945215;28;20031;-77
2023/11/23 08:52:59;;;;;;;0.52;0.52;;;3.40;1.00;;;;;;4953318;28;20039;-78
2023/11/23 08:55:25;;;;;;;0.25;0.25;;;3.40;1.00;;;;;;4954142;28;20051;-79
2023/11/23 08:57:52;;;;;;;0.95;0.95;;;3.50;1.00;;;;;;4949821;28;20050;-78
2023/11/23 09:00:23;;;;;;;0.70;0.68;;;3.70;1.00;;;;;;4950172;28;20054;-78
2023/11/23 09:02:53;;;;;;;0.20;0.20;;;3.70;1.00;;;;;;4949799;28;20047;-77
2023/11/23 09:05:21;;;;;;;0.88;0.80;;;3.90;1.00;;;;;;4953014;28;20043;-77
2023/11/23 09:07:50;;;;;;;2.40;2.15;;;3.90;1.00;;;;;;4936463;28;20044;-78
2023/11/23 09:10:17;;;;;;;4.15;3.08;;;4.00;1.00;;;;;;4949830;28;20034;-78
2023/11/23 09:12:43;;;;;;;1.58;1.48;;;4.00;1.00;;;;;;4936381;28;20035;-76
2023/11/23 09:15:10;;;;;;;4.85;2.47;;;4.10;1.00;;;;;;4954470;28;20035;-78
2023/11/23 09:17:36;;;;;;;1.10;0.98;;;4.10;1.00;;;;;;4950820;28;20051;-78
2023/11/23 09:20:05;;;;;;;1.23;1.05;;;4.10;1.00;;;;;;4953033;28;20043;-79
2023/11/23 09:22:33;;;;;;;2.03;1.85;;;4.20;1.00;;;;;;4943369;29;20050;-78
2023/11/23 09:25:00;;;;;;;1.48;1.38;;;4.20;1.00;;;;;;4939623;29;20393;-80
2023/11/23 09:27:26;;;;;;;1.13;0.73;;;4.30;1.00;;;;;;4941786;29;20036;-78
2023/11/23 09:29:54;;;;;;;0.70;0.70;;;4.30;1.00;;;;;;4941668;29;20020;-78
2023/11/23 09:32:20;;;;;;;0.65;0.65;;;4.40;1.00;;;;;;4943046;29;20036;-78
2023/11/23 09:34:47;;;;;;;0.40;0.40;;;4.50;1.00;;;;;;4945846;29;20109;-76
2023/11/23 09:37:13;;;;;;;0.90;0.85;;;4.50;1.00;;;;;;4946646;29;20052;-79
2023/11/23 09:39:39;;;;;;;4.07;2.03;;;4.60;1.00;;;;;;4941129;29;20036;-77
2023/11/23 09:42:07;;;;;;;0.68;0.68;;;4.70;1.00;;;;;;4945298;29;20031;-79
2023/11/23 09:44:36;;;;;;;2.13;1.13;;;4.70;1.00;;;;;;4947096;28;20047;-79
2023/11/23 09:47:05;;;;;;;5.93;2.17;;;4.80;1.00;;;;;;4945271;29;20047;-78
2023/11/23 09:49:32;;;;;;;1.85;0.77;;;4.90;99.90;;;;;;4948438;29;20036;-79
2023/11/23 09:52:01;;;;;;;0.38;0.38;;;5.00;99.90;;;;;;4926923;29;20035;-78
2023/11/23 09:54:31;;;;;;;0.68;0.68;;;5.10;99.90;;;;;;4942681;29;20031;-78
2023/11/23 09:56:58;;;;;;;2.85;2.60;;;5.20;99.90;;;;;;4942698;29;20039;-78
2023/11/23 09:59:25;;;;;;;0.28;0.28;;;5.20;99.90;;;;;;4949410;28;20036;-77
2023/11/23 10:01:54;;;;;;;0.30;0.30;;;5.20;99.90;;;;;;4927511;29;20046;-77
2023/11/23 10:04:21;;;;;;;0.47;0.47;;;5.30;99.90;;;;;;4940387;29;20043;-78
2023/11/23 10:06:47;;;;;;;0.90;0.90;;;5.30;99.90;;;;;;4938279;28;20043;-77
2023/11/23 10:09:17;;;;;;;1.10;1.10;;;5.40;99.90;;;;;;4935655;29;20031;-78
2023/11/23 10:11:43;;;;;;;0.98;0.85;;;5.40;99.90;;;;;;4945663;29;20031;-79
2023/11/23 10:14:10;;;;;;;1.83;1.67;;;5.50;99.90;;;;;;4948142;28;20043;-78
2023/11/23 10:16:36;;;;;;;1.70;1.52;;;5.60;99.90;;;;;;4949178;28;20032;-78
2023/11/23 10:19:03;;;;;;;0.22;0.22;;;5.50;99.90;;;;;;4916523;29;20079;-78
2023/11/23 10:21:29;;;;;;;3.58;2.95;;;5.50;99.90;;;;;;4917053;29;20378;-79
2023/11/23 10:24:07;;;;;;;0.40;0.40;;;5.50;99.90;;;;;;4919114;29;20377;-78
2023/11/23 10:26:34;;;;;;;1.33;1.13;;;5.40;99.90;;;;;;4914797;29;20043;-78
2023/11/23 10:29:00;;;;;;;2.75;1.08;;;5.40;99.90;;;;;;4911646;29;20032;-78
2023/11/23 10:31:26;;;;;;;2.47;1.30;;;5.40;99.90;;;;;;4925900;29;20041;-77
2023/11/23 10:33:53;;;;;;;1.23;0.60;;;5.40;99.90;;;;;;4925850;29;20769;-78
2023/11/23 10:36:21;;;;;;;0.82;0.82;;;5.40;1.00;;;;;;4909908;29;20049;-78
2023/11/23 10:38:49;;;;;;;4.15;2.60;;;5.40;99.90;;;;;;4906451;29;20397;-79
2023/11/23 10:41:16;;;;;;;0.47;0.47;;;5.50;99.90;;;;;;4901113;29;20051;-81
2023/11/23 10:43:42;;;;;;;0.55;0.55;;;5.50;1.00;;;;;;4907242;29;20032;-77
2023/11/23 10:46:09;;;;;;;0.85;0.80;;;5.60;99.90;;;;;;4907700;29;20033;-78
2023/11/23 10:48:36;;;;;;;0.35;0.35;;;5.60;99.90;;;;;;4908891;29;20048;-77
2023/11/23 10:51:05;;;;;;;0.65;0.65;;;5.70;99.90;;;;;;4908035;29;20066;-78
2023/11/23 10:53:32;;;;;;;0.40;0.40;;;5.70;99.90;;;;;;4914186;29;20478;-78
2023/11/23 10:56:06;;;;;;;0.98;0.98;;;5.70;99.90;;;;;;4908501;29;20059;-78
2023/11/23 10:58:38;;;;;;;0.30;0.30;;;5.80;99.90;;;;;;4904012;29;20059;-78
2023/11/23 11:01:21;;;;;;;2.05;1.58;;;5.80;99.90;;;;;;4906280;29;20488;-77
2023/11/23 11:03:50;;;;;;;2.17;1.48;;;5.80;99.90;;;;;;4919910;29;20390;-81
2023/11/23 11:06:23;;;;;;;0.98;0.52;;;5.90;99.90;;;;;;4910842;29;20108;-81
2023/11/23 11:08:50;;;;;;;0.22;0.22;;;5.90;99.90;;;;;;4914100;29;20440;-82
2023/11/23 11:11:21;;;;;;;1.98;1.67;;;6.00;99.90;;;;;;4900391;29;20040;-81
2023/11/23 11:13:48;;;;;;;1.42;1.33;;;6.10;99.90;;;;;;4924282;29;20036;-79
2023/11/23 11:16:16;;;;;;;0.90;0.63;;;6.20;99.90;;;;;;4922462;29;20051;-78
2023/11/23 11:18:52;;;;;;;1.52;1.38;;;6.30;99.90;;;;;;4939676;28;20145;-79
2023/11/23 11:21:23;;;;;;;0.80;0.80;;;6.40;99.90;;;;;;4955411;28;20467;-78
2023/11/23 11:23:51;;;;;;;;;;;6.50;99.90;;;;;;4953589;29;20031;-78
2023/11/23 11:26:24;;;;;;;0.52;0.52;;;6.60;1.00;;;;;;4955941;29;19922;-80
2023/11/23 11:29:05;;;;;;;1.05;1.02;;;6.70;99.90;;;;;;4950390;29;20561;-78
2023/11/23 11:31:42;;;;;;;3.95;1.67;;;6.70;99.90;;;;;;4955962;29;20042;-78
2023/11/23 11:34:14;;;;;;;0.70;0.70;;;6.70;99.90;;;;;;4951303;28;20047;-79
2023/11/23 11:36:41;;;;;;;0.40;0.40;;;6.70;1.00;;;;;;4947292;28;20069;-79
2023/11/23 11:39:10;;;;;;;2.75;0.95;;;6.80;1.00;;;;;;4962554;28;20036;-79
2023/11/23 11:41:37;;;;;;;0.25;0.25;;;6.70;99.90;;;;;;4932335;29;20062;-78
2023/11/23 11:44:04;;;;;;;0.55;0.55;;;6.70;1.00;;;;;;4934595;29;20047;-79
2023/11/23 11:46:33;;;;;;;0.68;0.68;;;6.60;1.00;;;;;;4950962;29;20051;-81
2023/11/23 11:49:02;;;;;;;0.65;0.50;;;6.60;1.00;;;;;;4957288;28;20043;-78
2023/11/23 11:51:30;;;;;;;0.10;0.10;;;6.60;1.00;;;;;;4951856;29;20031;-79
2023/11/23 11:54:00;;;;;;;0.40;0.40;;;6.60;1.00;;;;;;4950487;28;20027;-78
2023/11/23 11:56:27;;;;;;;0.87;0.87;;;6.60;1.00;;;;;;4926538;29;20050;-78
2023/11/23 11:58:53;;;;;;;0.20;0.20;;;6.60;1.00;;;;;;4948653;28;20286;-79
2023/11/23 12:01:20;;;;;;;0.20;0.20;;;6.50;1.00;;;;;;4946796;28;20047;-79
2023/11/23 12:03:47;;;;;;;2.20;1.35;;;6.60;1.00;;;;;;4932466;29;20043;-79
2023/11/23 12:06:13;;;;;;;1.88;0.57;;;6.50;1.00;;;;;;4950354;28;20037;-79
2023/11/23 12:08:40;;;;;;;0.65;0.65;;;6.50;1.00;;;;;;4950261;28;20039;-80
2023/11/23 12:11:06;;;;;;;0.47;0.43;;;6.50;1.00;;;;;;4931334;29;20042;-79
2023/11/23 12:13:34;;;;;;;0.82;0.80;;;6.50;1.00;;;;;;4948448;28;20031;-80
2023/11/23 12:16:01;;;;;;;1.75;1.42;;;6.40;1.00;;;;;;4946760;28;20516;-81
2023/11/23 12:18:29;;;;;;;1.67;1.58;;;6.40;1.00;;;;;;4945425;29;20048;-81
2023/11/23 12:20:55;;;;;;;0.35;0.32;;;6.40;1.00;;;;;;4943787;29;20051;-79
2023/11/23 12:23:22;;;;;;;1.65;1.45;;;6.40;1.00;;;;;;4949394;28;20485;-79
2023/11/23 12:25:48;;;;;;;0.80;0.60;;;6.50;1.00;;;;;;4927870;29;20055;-80
2023/11/23 12:28:18;;;;;;;2.75;2.03;;;6.60;1.00;;;;;;4943518;28;20055;-79
2023/11/23 12:30:45;;;;;;;1.15;0.88;;;6.60;1.00;;;;;;4945218;28;20027;-80
2023/11/23 12:33:12;;;;;;;0.40;0.40;;;6.60;1.00;;;;;;4934131;29;20035;-79
2023/11/23 12:35:39;;;;;;;0.40;0.40;;;6.60;1.00;;;;;;4944604;29;20047;-80
2023/11/23 12:38:06;;;;;;;1.42;1.08;;;6.60;1.00;;;;;;4945822;29;20036;-80
2023/11/23 12:40:36;;;;;;;0.57;0.57;;;6.60;1.00;;;;;;4946927;29;20030;-80
2023/11/23 12:43:02;;;;;;;0.80;0.77;;;6.50;1.00;;;;;;4945121;29;20027;-80
2023/11/23 12:45:30;;;;;;;5.45;0.60;;;6.50;1.00;;;;;;4931638;29;20043;-80
2023/11/23 12:47:56;;;;;;;0.68;0.68;;;6.50;1.00;;;;;;4941693;29;20477;-78
2023/11/23 12:50:22;;;;;;;0.28;0.28;;;6.50;1.00;;;;;;4924226;29;20709;-78
2023/11/23 12:52:49;;;;;;;0.40;0.40;;;6.50;1.00;;;;;;4946762;29;20035;-79
2023/11/23 12:55:18;;;;;;;0.93;0.82;;;6.50;1.00;;;;;;4949767;29;20043;-79
2023/11/23 12:57:47;;;;;;;0.38;0.38;;;6.50;1.00;;;;;;4928422;29;20941;-79
2023/11/23 13:00:14;;;;;;;1.05;0.95;;;6.50;1.00;;;;;;4940558;29;20039;-79
2023/11/23 13:02:41;;;;;;;2.70;1.52;;;6.60;1.00;;;;;;4941275;29;20050;-80
2023/11/23 13:05:08;;;;;;;0.73;0.68;;;6.50;1.00;;;;;;4944362;29;20039;-78